createdAt,value
2023-04-02T00:00:21.535Z,100621.75
2023-04-02T00:04:22.253Z,100632.88
2023-04-02T00:07:49.072Z,100633.72
2023-04-02T00:11:12.340Z,100638.03
2023-04-02T00:14:36.395Z,100648.28
2023-04-02T00:17:58.805Z,100678.16
2023-04-02T00:21:23.563Z,100649.94
2023-04-02T00:24:47.278Z,100657.63
2023-04-02T00:28:15.198Z,100663.59
2023-04-02T00:31:42.425Z,100669.53
2023-04-02T00:35:06.316Z,100667.84
2023-04-02T00:38:29.770Z,100668.66
2023-04-02T00:42:05.260Z,100680.63
2023-04-02T00:45:31.205Z,100674.66
2023-04-02T00:48:58.986Z,100678.91
2023-04-02T00:52:24.692Z,100678.91
2023-04-02T00:55:46.933Z,100689.13
2023-04-02T00:59:20.879Z,100697.63
2023-04-02T01:02:43.725Z,100692.50
2023-04-02T01:06:11.719Z,100693.28
2023-04-02T01:09:48.788Z,100703.50
2023-04-02T01:13:20.362Z,100700.94
2023-04-02T01:16:50.724Z,100700.91
2023-04-02T01:20:36.773Z,100686.31
2023-04-02T01:24:04.173Z,100714.56
2023-04-02T01:27:29.943Z,100717.13
2023-04-02T01:30:57.259Z,100719.69
2023-04-02T01:34:22.196Z,100729.03
2023-04-02T01:37:51.559Z,100720.50
2023-04-02T01:41:22.119Z,100732.44
2023-04-02T01:44:47.988Z,100728.16
2023-04-02T01:48:17.089Z,100740.09
2023-04-02T01:51:43.222Z,100735.81
2023-04-02T01:55:05.798Z,100746.88
2023-04-02T01:58:29.662Z,100757.97
2023-04-02T02:01:58.659Z,100760.47
2023-04-02T02:05:24.219Z,100772.41
2023-04-02T02:08:50.513Z,100774.09
2023-04-02T02:12:15.415Z,100784.22
2023-04-02T02:15:37.792Z,100786.75
2023-04-02T02:19:02.994Z,100790.16
2023-04-02T02:22:30.522Z,100796.09
2023-04-02T02:25:52.856Z,100796.06
2023-04-02T02:29:19.641Z,100796.06
2023-04-02T02:32:52.193Z,100808.81
2023-04-02T02:36:23.297Z,100813.06
2023-04-02T02:39:49.888Z,100819.00
2023-04-02T02:43:16.941Z,100786.31
2023-04-02T02:46:42.792Z,100819.75
2023-04-02T02:50:08.931Z,100818.03
2023-04-02T02:53:31.596Z,100829.94
2023-04-02T02:56:58.689Z,100844.38
2023-04-02T03:00:24.769Z,100837.53
2023-04-02T03:03:48.639Z,100846.88
2023-04-02T03:07:10.831Z,100856.25
2023-04-02T03:10:40.552Z,100851.94
2023-04-02T03:14:16.641Z,100851.84
2023-04-02T03:17:44.047Z,100858.66
2023-04-02T03:21:17.406Z,100870.72
2023-04-02T03:24:45.997Z,100864.59
2023-04-02T03:28:13.657Z,100874.06
2023-04-02T03:31:41.211Z,100885.16
2023-04-02T03:35:24.366Z,100893.69
2023-04-02T03:38:48.410Z,100900.50
2023-04-02T03:42:17.919Z,100903.06
2023-04-02T03:45:40.830Z,100914.13
2023-04-02T03:49:09.357Z,100920.03
2023-04-02T03:52:31.645Z,100926.00
2023-04-02T03:55:54.286Z,100931.16
2023-04-02T03:59:24.362Z,100937.13
2023-04-02T04:02:50.948Z,100945.66
2023-04-02T04:06:21.549Z,100951.72
2023-04-02T04:09:47.891Z,100948.31
2023-04-02T04:13:14.989Z,100962.88
2023-04-02T04:16:48.660Z,100962.94
2023-04-02T04:20:22.184Z,100968.13
2023-04-02T04:23:51.731Z,100969.88
2023-04-02T04:27:22.661Z,100980.22
2023-04-02T04:30:53.614Z,100982.00
2023-04-02T04:34:19.980Z,100987.16
2023-04-02T04:37:45.078Z,100996.66
2023-04-02T04:41:14.487Z,100983.94
2023-04-02T04:44:45.501Z,100998.56
2023-04-02T04:48:13.924Z,101006.38
2023-04-02T04:51:41.018Z,101009.94
2023-04-02T04:55:04.343Z,100996.25
2023-04-02T04:58:33.363Z,101020.41
2023-04-02T05:02:02.048Z,101021.34
2023-04-02T05:09:14.651Z,101042.88
2023-04-02T05:12:39.064Z,101048.06
2023-04-02T05:16:13.056Z,101051.56
2023-04-02T05:24:29.779Z,101053.47
2023-04-02T05:27:58.909Z,101055.22
2023-04-02T05:31:26.938Z,101065.66
2023-04-02T05:34:54.969Z,101055.41
2023-04-02T05:38:22.034Z,101082.16
2023-04-02T05:41:47.751Z,101079.72
2023-04-02T05:45:21.621Z,101080.59
2023-04-02T05:48:49.636Z,101095.25
2023-04-02T05:52:16.775Z,101097.88
2023-04-02T05:55:50.483Z,101065.31
2023-04-02T05:59:17.015Z,101060.25
2023-04-02T06:02:45.274Z,101099.00
2023-04-02T06:06:18.715Z,101099.06
2023-04-02T06:09:46.898Z,101098.28
2023-04-02T06:13:09.887Z,101106.00
2023-04-02T06:16:33.611Z,101100.13
2023-04-02T06:19:59.154Z,101117.31
2023-04-02T06:23:25.988Z,101116.47
2023-04-02T06:26:52.883Z,101107.06
2023-04-02T06:30:20.355Z,101124.28
2023-04-02T06:33:42.037Z,101123.44
2023-04-02T06:37:06.807Z,101132.97
2023-04-02T06:40:39.468Z,101129.63
2023-04-02T06:44:06.223Z,101138.22
2023-04-02T06:47:35.650Z,101140.84
2023-04-02T06:51:02.695Z,101137.44
2023-04-02T06:54:25.188Z,101141.75
2023-04-02T06:57:49.208Z,101149.50
2023-04-02T07:01:17.360Z,101161.53
2023-04-02T07:04:39.325Z,101165.88
2023-04-02T07:08:00.842Z,101168.44
2023-04-02T07:11:23.913Z,101172.72
2023-04-02T07:14:48.276Z,101179.63
2023-04-02T07:18:23.274Z,101184.81
2023-04-02T07:21:45.174Z,101202.00
2023-04-02T07:25:08.061Z,101187.38
2023-04-02T07:28:30.609Z,101201.16
2023-04-02T07:31:54.248Z,101200.25
2023-04-02T07:35:16.269Z,101178.78
2023-04-02T07:38:38.415Z,101212.31
2023-04-02T07:42:01.880Z,101226.91
2023-04-02T07:45:23.814Z,101217.47
2023-04-02T07:48:47.814Z,101234.66
2023-04-02T07:52:09.901Z,101235.50
2023-04-02T07:55:31.740Z,101233.78
2023-04-02T07:58:53.909Z,101240.69
2023-04-02T08:02:22.782Z,101240.66
2023-04-02T08:05:51.822Z,101238.94
2023-04-02T08:09:13.734Z,101247.53
2023-04-02T08:12:35.625Z,101246.66
2023-04-02T08:15:59.651Z,101263.00
2023-04-02T08:19:21.685Z,101253.53
2023-04-02T08:22:44.933Z,101256.97
2023-04-02T08:26:07.582Z,101255.25
2023-04-02T08:29:32.382Z,101256.97
2023-04-02T08:32:54.650Z,101276.78
2023-04-02T08:36:18.266Z,101303.41
2023-04-02T08:39:42.311Z,101281.06
2023-04-02T08:43:22.388Z,101290.50
2023-04-02T08:46:49.458Z,101272.41
2023-04-02T08:50:20.895Z,101275.88
2023-04-02T08:53:42.631Z,101293.94
2023-04-02T08:57:08.956Z,101293.91
2023-04-02T09:00:38.100Z,101295.59
2023-04-02T09:04:00.816Z,101289.59
2023-04-02T09:07:22.861Z,101293.03
2023-04-02T09:10:50.277Z,101304.22
2023-04-02T09:14:19.116Z,101309.41
2023-04-02T09:17:53.236Z,101315.41
2023-04-02T09:21:32.896Z,101319.72
2023-04-02T09:24:57.902Z,101301.66
2023-04-02T09:28:21.578Z,101307.66
2023-04-02T09:31:47.700Z,101308.47
2023-04-02T09:35:25.389Z,101317.94
2023-04-02T09:39:06.638Z,101300.75
2023-04-02T09:42:34.307Z,101326.53
2023-04-02T09:46:01.564Z,101317.09
2023-04-02T09:49:29.836Z,101321.31
2023-04-02T09:52:51.958Z,101330.78
2023-04-02T09:56:16.961Z,101322.22
2023-04-02T09:59:39.150Z,101343.72
2023-04-02T10:03:06.428Z,101337.66
2023-04-02T10:06:31.991Z,101337.63
2023-04-02T10:09:59.903Z,101333.31
2023-04-02T10:13:28.815Z,101346.22
2023-04-02T10:16:53.070Z,101354.81
2023-04-02T10:20:21.254Z,101361.72
2023-04-02T10:23:44.942Z,101348.78
2023-04-02T10:27:22.717Z,101361.69
2023-04-02T10:30:58.397Z,101368.56
2023-04-02T10:34:26.020Z,101368.56
2023-04-02T10:38:13.771Z,101363.44
2023-04-02T10:41:42.652Z,101384.94
2023-04-02T10:45:17.811Z,101385.81
2023-04-02T10:48:48.955Z,101385.81
2023-04-02T10:52:15.800Z,101390.19
2023-04-02T10:55:43.625Z,101393.63
2023-04-02T10:59:16.128Z,101398.78
2023-04-02T11:02:47.515Z,101398.75
2023-04-02T11:06:20.963Z,101409.13
2023-04-02T11:09:45.518Z,101403.97
2023-04-02T11:13:16.562Z,101418.59
2023-04-02T11:16:44.010Z,101422.06
2023-04-02T11:20:40.786Z,101416.88
2023-04-02T11:24:04.089Z,101424.63
2023-04-02T11:27:31.696Z,101428.94
2023-04-02T11:30:53.759Z,101418.63
2023-04-02T11:35:06.656Z,101438.41
2023-04-02T11:38:55.022Z,101435.81
2023-04-02T11:42:34.834Z,101443.56
2023-04-02T11:45:59.542Z,101444.44
2023-04-02T11:49:57.548Z,101434.97
2023-04-02T11:53:23.822Z,101441.84
2023-04-02T11:56:54.859Z,101450.44
2023-04-02T12:00:29.591Z,101465.09
2023-04-02T12:04:18.239Z,101453.06
2023-04-02T12:08:08.324Z,101452.19
2023-04-02T12:11:36.199Z,101469.41
2023-04-02T12:14:59.634Z,101465.09
2023-04-02T12:18:24.396Z,101445.31
2023-04-02T12:21:47.888Z,101461.59
2023-04-02T12:25:27.142Z,101469.34
2023-04-02T12:28:49.056Z,101480.59
2023-04-02T12:32:22.739Z,101477.16
2023-04-02T12:35:46.715Z,101479.72
2023-04-02T12:39:18.471Z,101478.88
2023-04-02T12:42:42.031Z,101500.41
2023-04-02T12:46:07.110Z,101507.31
2023-04-02T12:49:35.846Z,101502.19
2023-04-02T12:52:59.094Z,101502.16
2023-04-02T12:56:23.175Z,101497.81
2023-04-02T12:59:46.364Z,101519.41
2023-04-02T13:03:22.629Z,101503.00
2023-04-02T13:06:55.057Z,101491.81
2023-04-02T13:10:26.460Z,101513.34
2023-04-02T13:13:49.753Z,101522.81
2023-04-02T13:17:43.556Z,101522.81
2023-04-02T13:21:08.406Z,101519.38
2023-04-02T13:24:32.198Z,101520.22
2023-04-02T13:27:54.805Z,101504.75
2023-04-02T13:31:17.959Z,101528.00
2023-04-02T13:34:40.134Z,101534.03
2023-04-02T13:38:04.181Z,101559.84
2023-04-02T13:41:27.925Z,101554.69
2023-04-02T13:44:49.635Z,101547.81
2023-04-02T13:48:16.130Z,101564.16
2023-04-02T13:51:42.231Z,101546.94
2023-04-02T13:55:05.944Z,101560.72
2023-04-02T13:58:29.446Z,101564.13
2023-04-02T14:01:53.906Z,101571.03
2023-04-02T14:05:32.002Z,101565.84
2023-04-02T14:09:03.082Z,101575.34
2023-04-02T14:12:42.691Z,101576.19
2023-04-02T14:16:30.013Z,101582.19
2023-04-02T14:20:09.437Z,101581.31
2023-04-02T14:23:53.919Z,101588.19
2023-04-02T14:27:27.475Z,101597.59
2023-04-02T14:30:57.342Z,101589.00
2023-04-02T14:34:29.233Z,101593.25
2023-04-02T14:37:57.774Z,101592.41
2023-04-02T14:41:24.602Z,101614.78
2023-04-02T14:44:53.153Z,101594.13
2023-04-02T14:48:29.262Z,101622.56
2023-04-02T14:51:56.308Z,101626.78
2023-04-02T14:55:27.673Z,101624.19
2023-04-02T14:58:53.779Z,101643.03
2023-04-02T15:02:19.832Z,101633.56
2023-04-02T15:05:46.640Z,101643.88
2023-04-02T15:09:14.654Z,101657.59
2023-04-02T15:12:38.242Z,101650.69
2023-04-02T15:16:11.349Z,101652.41
2023-04-02T15:19:33.604Z,101654.06
2023-04-02T15:23:08.135Z,101650.59
2023-04-02T15:26:38.808Z,101669.53
2023-04-02T15:30:09.070Z,101675.47
2023-04-02T15:33:41.728Z,101663.38
2023-04-02T15:37:13.398Z,101663.34
2023-04-02T15:40:51.764Z,101683.97
2023-04-02T15:44:16.461Z,101682.22
2023-04-02T15:47:49.102Z,101683.09
2023-04-02T15:51:24.245Z,101687.34
2023-04-02T15:55:03.570Z,101701.16
2023-04-02T15:58:45.184Z,101710.50
2023-04-02T16:02:30.796Z,101707.03
2023-04-02T16:06:05.757Z,101710.38
2023-04-02T16:09:30.983Z,101716.41
2023-04-02T16:12:54.356Z,101718.09
2023-04-02T16:16:24.032Z,101731.75
2023-04-02T16:19:51.287Z,101731.69
2023-04-02T16:23:15.784Z,101732.53
2023-04-02T16:26:50.074Z,101734.19
2023-04-02T16:30:30.805Z,101737.59
2023-04-02T16:34:00.461Z,101751.28
2023-04-02T16:37:30.355Z,101724.38
2023-04-02T16:41:08.254Z,101753.69
2023-04-02T16:44:42.058Z,101769.06
2023-04-02T16:48:13.302Z,101760.38
2023-04-02T16:51:44.836Z,101783.44
2023-04-02T16:55:23.540Z,101778.22
2023-04-02T16:58:53.987Z,101782.44
2023-04-02T17:02:29.044Z,101766.78
2023-04-02T17:05:59.011Z,101786.50
2023-04-02T17:09:32.126Z,101791.56
2023-04-02T17:13:02.296Z,101800.03
2023-04-02T17:16:33.673Z,101800.00
2023-04-02T17:19:59.955Z,101805.84
2023-04-02T17:23:21.794Z,101787.56
2023-04-02T17:26:47.762Z,101803.13
2023-04-02T17:30:17.056Z,101807.28
2023-04-02T17:33:38.977Z,101808.88
2023-04-02T17:37:13.519Z,101811.41
2023-04-02T17:40:43.926Z,101819.88
2023-04-02T17:44:22.830Z,101823.19
2023-04-02T17:47:53.268Z,101831.69
2023-04-02T17:51:23.493Z,101832.44
2023-04-02T17:54:59.851Z,101818.50
2023-04-02T17:58:40.296Z,101829.69
2023-04-02T18:02:19.996Z,101837.34
2023-04-02T18:05:46.718Z,101839.75
2023-04-02T18:09:27.983Z,101838.72
2023-04-02T18:12:57.765Z,101842.94
2023-04-02T18:16:39.833Z,101842.84
2023-04-02T18:20:17.196Z,101816.72
2023-04-02T18:23:54.395Z,101847.91
2023-04-02T18:27:36.520Z,101848.63
2023-04-02T18:31:05.686Z,101854.63
2023-04-02T18:34:42.586Z,101857.13
2023-04-02T18:38:27.520Z,101857.84
2023-04-02T18:41:59.750Z,101847.44
2023-04-02T18:45:26.670Z,101852.53
2023-04-02T18:48:57.589Z,101860.22
2023-04-02T18:52:21.531Z,101877.47
2023-04-02T18:55:49.765Z,101840.16
2023-04-02T18:59:29.812Z,101876.50
2023-04-02T19:02:57.241Z,101876.38
2023-04-02T19:06:24.682Z,101888.41
2023-04-02T19:09:48.898Z,101887.41
2023-04-02T19:13:16.768Z,101886.56
2023-04-02T19:16:58.862Z,101889.84
2023-04-02T19:20:30.000Z,101891.56
2023-04-02T19:24:03.714Z,101894.97
2023-04-02T19:27:33.622Z,101886.38
2023-04-02T19:31:12.457Z,101902.53
2023-04-02T19:34:41.108Z,101904.25
2023-04-02T19:38:13.495Z,101905.88
2023-04-02T19:41:41.420Z,101904.03
2023-04-02T19:45:04.089Z,101904.03
2023-04-02T19:48:32.018Z,101912.53
2023-04-02T19:51:54.127Z,101907.34
2023-04-02T19:55:16.416Z,101915.03
2023-04-02T19:58:38.121Z,101909.03
2023-04-02T20:02:02.284Z,101910.63
2023-04-02T20:05:25.912Z,101900.34
2023-04-02T20:08:48.027Z,101906.41
2023-04-02T20:12:09.792Z,101914.88
2023-04-02T20:15:32.527Z,101919.88
2023-04-02T20:18:54.676Z,101925.00
2023-04-02T20:22:19.149Z,101923.22
2023-04-02T20:25:47.013Z,101901.44
2023-04-02T20:29:09.536Z,101913.56
2023-04-02T20:32:31.320Z,101888.41
2023-04-02T20:35:54.743Z,101927.34
2023-04-02T20:39:19.592Z,101924.84
2023-04-02T20:42:42.080Z,101934.25
2023-04-02T20:46:05.938Z,101935.09
2023-04-02T20:49:27.875Z,101927.41
2023-04-02T20:52:49.574Z,101916.13
2023-04-02T20:56:14.618Z,101914.28
2023-04-02T20:59:36.397Z,101920.28
2023-04-02T21:03:00.544Z,101913.28
2023-04-02T21:06:24.576Z,101927.19
2023-04-02T21:09:46.369Z,101927.16
2023-04-02T21:13:09.496Z,101927.97
2023-04-02T21:16:32.512Z,101930.53
2023-04-02T21:19:54.399Z,101935.66
2023-04-02T21:23:16.260Z,101912.25
2023-04-02T21:26:40.352Z,101938.06
2023-04-02T21:30:03.962Z,101932.88
2023-04-02T21:33:26.360Z,101942.19
2023-04-02T21:36:50.747Z,101926.53
2023-04-02T21:40:13.234Z,101942.03
2023-04-02T21:43:35.305Z,101953.19
2023-04-02T21:46:59.052Z,101941.09
2023-04-02T21:50:21.188Z,101950.56
2023-04-02T21:53:43.949Z,101948.78
2023-04-02T21:57:05.898Z,101937.66
2023-04-02T22:00:28.797Z,101948.78
2023-04-02T22:03:52.431Z,101942.69
2023-04-02T22:07:14.352Z,101935.66
2023-04-02T22:10:37.351Z,101941.75
2023-04-02T22:13:59.410Z,101944.25
2023-04-02T22:17:21.432Z,101928.56
2023-04-02T22:20:44.628Z,101951.03
2023-04-02T22:24:09.290Z,101947.66
2023-04-02T22:27:30.933Z,101946.81
2023-04-02T22:30:52.817Z,101947.59
2023-04-02T22:34:14.695Z,101940.75
2023-04-02T22:37:38.213Z,101948.44
2023-04-02T22:41:11.110Z,101945.97
2023-04-02T22:44:33.173Z,101951.94
2023-04-02T22:47:55.061Z,101947.59
2023-04-02T22:51:18.298Z,101954.44
2023-04-02T22:54:41.711Z,101949.31
2023-04-02T22:58:03.200Z,101957.88
2023-04-02T23:01:27.283Z,101955.09
2023-04-02T23:04:49.385Z,101956.78
2023-04-02T23:08:11.115Z,101949.94
2023-04-02T23:11:34.605Z,101938.56
2023-04-02T23:14:57.249Z,101955.81
2023-04-02T23:18:19.283Z,101953.19
2023-04-02T23:21:41.202Z,101950.63
2023-04-02T23:25:04.178Z,101955.81
2023-04-02T23:28:27.640Z,101951.47
2023-04-02T23:31:50.120Z,101952.22
2023-04-02T23:35:12.072Z,101955.63
2023-04-02T23:38:33.963Z,101946.16
2023-04-02T23:41:55.875Z,101959.00
2023-04-02T23:45:19.912Z,101965.03
2023-04-02T23:48:42.063Z,101949.47
2023-04-02T23:52:04.331Z,101961.44
2023-04-02T23:55:26.050Z,101963.09
2023-04-02T23:58:48.077Z,101941.38
